<?xml version="1.0" encoding="UTF-8" standalone="no" ?>
<gpx xmlns="http://www.topografix.com/GPX/1/1" xmlns:xsi="http://www.w3.org/2001/XMLSchema-instance" xsi:schemaLocation="http://www.topografix.com/GPX/1/1 http://www.topografix.com/GPX/1/1/gpx.xsd" version="1.1" creator="VisuGPX - https://www.visugpx.com">
  <metadata>
    <name>Celle randogps24-310</name>
  </metadata>
  <trk>
    <name><![CDATA[randogps24-310]]></name>
    <trkseg>
      <trkpt lat="45.29479" lon="0.41098">
        <ele>95.79</ele>
        <time>2016-10-31T09:42:08Z</time>
      </trkpt>
      <trkpt lat="45.29498" lon="0.41114">
        <ele>96.75</ele>
        <time>2016-10-31T09:42:25Z</time>
      </trkpt>
      <trkpt lat="45.29502" lon="0.41119">
        <ele>96.75</ele>
        <time>2016-10-31T09:42:30Z</time>
      </trkpt>
      <trkpt lat="45.29512" lon="0.41131">
        <ele>98.67</ele>
        <time>2016-10-31T09:42:40Z</time>
      </trkpt>
      <trkpt lat="45.29513" lon="0.41133">
        <ele>97.71</ele>
        <time>2016-10-31T09:42:41Z</time>
      </trkpt>
      <trkpt lat="45.29517" lon="0.4114">
        <ele>99.63</ele>
        <time>2016-10-31T09:42:46Z</time>
      </trkpt>
      <trkpt lat="45.29534" lon="0.4117">
        <ele>97.71</ele>
        <time>2016-10-31T09:43:04Z</time>
      </trkpt>
      <trkpt lat="45.29548" lon="0.41199">
        <ele>97.71</ele>
        <time>2016-10-31T09:43:21Z</time>
      </trkpt>
      <trkpt lat="45.29556" lon="0.41216">
        <ele>99.15</ele>
        <time>2016-10-31T09:43:32Z</time>
      </trkpt>
      <trkpt lat="45.29574" lon="0.41242">
        <ele>99.15</ele>
        <time>2016-10-31T09:43:52Z</time>
      </trkpt>
      <trkpt lat="45.29582" lon="0.41259">
        <ele>99.15</ele>
        <time>2016-10-31T09:44:03Z</time>
      </trkpt>
      <trkpt lat="45.2959" lon="0.41268">
        <ele>99.15</ele>
        <time>2016-10-31T09:44:11Z</time>
      </trkpt>
      <trkpt lat="45.29595" lon="0.41269">
        <ele>99.15</ele>
        <time>2016-10-31T09:44:16Z</time>
      </trkpt>
      <trkpt lat="45.29602" lon="0.41263">
        <ele>100.11</ele>
        <time>2016-10-31T09:44:23Z</time>
      </trkpt>
      <trkpt lat="45.29623" lon="0.41244">
        <ele>100.11</ele>
        <time>2016-10-31T09:44:41Z</time>
      </trkpt>
      <trkpt lat="45.29638" lon="0.4123">
        <ele>100.6</ele>
        <time>2016-10-31T09:44:57Z</time>
      </trkpt>
      <trkpt lat="45.29651" lon="0.41228">
        <ele>102.04</ele>
        <time>2016-10-31T09:45:07Z</time>
      </trkpt>
      <trkpt lat="45.29661" lon="0.41241">
        <ele>103</ele>
        <time>2016-10-31T09:45:22Z</time>
      </trkpt>
      <trkpt lat="45.29667" lon="0.41258">
        <ele>103</ele>
        <time>2016-10-31T09:45:33Z</time>
      </trkpt>
      <trkpt lat="45.29674" lon="0.41255">
        <ele>103.48</ele>
        <time>2016-10-31T09:45:41Z</time>
      </trkpt>
      <trkpt lat="45.29688" lon="0.41255">
        <ele>104.44</ele>
        <time>2016-10-31T09:45:50Z</time>
      </trkpt>
      <trkpt lat="45.29692" lon="0.4126">
        <ele>104.92</ele>
        <time>2016-10-31T09:45:54Z</time>
      </trkpt>
      <trkpt lat="45.29697" lon="0.41269">
        <ele>104.44</ele>
        <time>2016-10-31T09:46:01Z</time>
      </trkpt>
      <trkpt lat="45.29699" lon="0.41271">
        <ele>104.44</ele>
        <time>2016-10-31T09:46:03Z</time>
      </trkpt>
      <trkpt lat="45.29712" lon="0.41282">
        <ele>104.44</ele>
        <time>2016-10-31T09:46:17Z</time>
      </trkpt>
      <trkpt lat="45.29718" lon="0.41288">
        <ele>103.96</ele>
        <time>2016-10-31T09:46:24Z</time>
      </trkpt>
      <trkpt lat="45.29717" lon="0.4129">
        <ele>105.4</ele>
        <time>2016-10-31T09:46:27Z</time>
      </trkpt>
      <trkpt lat="45.29732" lon="0.41306">
        <ele>105.4</ele>
        <time>2016-10-31T09:46:40Z</time>
      </trkpt>
      <trkpt lat="45.29741" lon="0.4132">
        <ele>103.96</ele>
        <time>2016-10-31T09:46:50Z</time>
      </trkpt>
      <trkpt lat="45.29752" lon="0.41343">
        <ele>103.48</ele>
        <time>2016-10-31T09:47:03Z</time>
      </trkpt>
      <trkpt lat="45.2976" lon="0.41366">
        <ele>103</ele>
        <time>2016-10-31T09:47:20Z</time>
      </trkpt>
      <trkpt lat="45.29765" lon="0.41374">
        <ele>103</ele>
        <time>2016-10-31T09:47:27Z</time>
      </trkpt>
      <trkpt lat="45.2977" lon="0.41385">
        <ele>104.44</ele>
        <time>2016-10-31T09:47:37Z</time>
      </trkpt>
      <trkpt lat="45.29776" lon="0.41403">
        <ele>106.36</ele>
        <time>2016-10-31T09:47:46Z</time>
      </trkpt>
      <trkpt lat="45.29779" lon="0.41418">
        <ele>107.32</ele>
        <time>2016-10-31T09:48:03Z</time>
      </trkpt>
      <trkpt lat="45.29784" lon="0.41441">
        <ele>108.29</ele>
        <time>2016-10-31T09:48:19Z</time>
      </trkpt>
      <trkpt lat="45.298" lon="0.41472">
        <ele>108.29</ele>
        <time>2016-10-31T09:48:43Z</time>
      </trkpt>
      <trkpt lat="45.2982" lon="0.41497">
        <ele>108.29</ele>
        <time>2016-10-31T09:48:49Z</time>
      </trkpt>
      <trkpt lat="45.29841" lon="0.41535">
        <ele>108.77</ele>
        <time>2016-10-31T09:49:03Z</time>
      </trkpt>
      <trkpt lat="45.29878" lon="0.41601">
        <ele>109.73</ele>
        <time>2016-10-31T09:49:19Z</time>
      </trkpt>
      <trkpt lat="45.29905" lon="0.41659">
        <ele>109.73</ele>
        <time>2016-10-31T09:49:24Z</time>
      </trkpt>
      <trkpt lat="45.29925" lon="0.41701">
        <ele>110.21</ele>
        <time>2016-10-31T09:49:39Z</time>
      </trkpt>
      <trkpt lat="45.29942" lon="0.41739">
        <ele>110.69</ele>
        <time>2016-10-31T09:49:54Z</time>
      </trkpt>
      <trkpt lat="45.29949" lon="0.41727">
        <ele>112.13</ele>
        <time>2016-10-31T09:50:08Z</time>
      </trkpt>
      <trkpt lat="45.29961" lon="0.4171">
        <ele>112.61</ele>
        <time>2016-10-31T09:50:22Z</time>
      </trkpt>
      <trkpt lat="45.2997" lon="0.41701">
        <ele>112.61</ele>
        <time>2016-10-31T09:50:26Z</time>
      </trkpt>
      <trkpt lat="45.29979" lon="0.41683">
        <ele>112.61</ele>
        <time>2016-10-31T09:50:42Z</time>
      </trkpt>
      <trkpt lat="45.29994" lon="0.41666">
        <ele>113.57</ele>
        <time>2016-10-31T09:51:00Z</time>
      </trkpt>
      <trkpt lat="45.30009" lon="0.41645">
        <ele>114.53</ele>
        <time>2016-10-31T09:51:13Z</time>
      </trkpt>
      <trkpt lat="45.30023" lon="0.41627">
        <ele>114.53</ele>
        <time>2016-10-31T09:51:27Z</time>
      </trkpt>
      <trkpt lat="45.30039" lon="0.41606">
        <ele>115.01</ele>
        <time>2016-10-31T09:51:48Z</time>
      </trkpt>
      <trkpt lat="45.30055" lon="0.41564">
        <ele>116.46</ele>
        <time>2016-10-31T09:52:08Z</time>
      </trkpt>
      <trkpt lat="45.3008" lon="0.41513">
        <ele>116.94</ele>
        <time>2016-10-31T09:52:27Z</time>
      </trkpt>
      <trkpt lat="45.30085" lon="0.41513">
        <ele>117.42</ele>
        <time>2016-10-31T09:52:43Z</time>
      </trkpt>
      <trkpt lat="45.30113" lon="0.41504">
        <ele>117.42</ele>
        <time>2016-10-31T09:53:03Z</time>
      </trkpt>
      <trkpt lat="45.30146" lon="0.41491">
        <ele>117.42</ele>
        <time>2016-10-31T09:53:26Z</time>
      </trkpt>
      <trkpt lat="45.3017" lon="0.41481">
        <ele>118.38</ele>
        <time>2016-10-31T09:53:43Z</time>
      </trkpt>
      <trkpt lat="45.30197" lon="0.41472">
        <ele>118.38</ele>
        <time>2016-10-31T09:54:02Z</time>
      </trkpt>
      <trkpt lat="45.30223" lon="0.41472">
        <ele>118.86</ele>
        <time>2016-10-31T09:54:20Z</time>
      </trkpt>
      <trkpt lat="45.30244" lon="0.41473">
        <ele>118.86</ele>
        <time>2016-10-31T09:54:36Z</time>
      </trkpt>
      <trkpt lat="45.3026" lon="0.4148">
        <ele>118.86</ele>
        <time>2016-10-31T09:54:47Z</time>
      </trkpt>
      <trkpt lat="45.30281" lon="0.41489">
        <ele>119.34</ele>
        <time>2016-10-31T09:55:03Z</time>
      </trkpt>
      <trkpt lat="45.30312" lon="0.41505">
        <ele>118.38</ele>
        <time>2016-10-31T09:55:24Z</time>
      </trkpt>
      <trkpt lat="45.30335" lon="0.41523">
        <ele>118.38</ele>
        <time>2016-10-31T09:55:42Z</time>
      </trkpt>
      <trkpt lat="45.30361" lon="0.41546">
        <ele>118.38</ele>
        <time>2016-10-31T09:56:01Z</time>
      </trkpt>
      <trkpt lat="45.30391" lon="0.41574">
        <ele>118.38</ele>
        <time>2016-10-31T09:56:25Z</time>
      </trkpt>
      <trkpt lat="45.30419" lon="0.41597">
        <ele>118.38</ele>
        <time>2016-10-31T09:56:47Z</time>
      </trkpt>
      <trkpt lat="45.30446" lon="0.41606">
        <ele>118.38</ele>
        <time>2016-10-31T09:57:06Z</time>
      </trkpt>
      <trkpt lat="45.30473" lon="0.41601">
        <ele>118.38</ele>
        <time>2016-10-31T09:57:26Z</time>
      </trkpt>
      <trkpt lat="45.30504" lon="0.41592">
        <ele>118.38</ele>
        <time>2016-10-31T09:57:47Z</time>
      </trkpt>
      <trkpt lat="45.30512" lon="0.41589">
        <ele>117.9</ele>
        <time>2016-10-31T09:57:59Z</time>
      </trkpt>
      <trkpt lat="45.30547" lon="0.41582">
        <ele>117.9</ele>
        <time>2016-10-31T09:58:23Z</time>
      </trkpt>
      <trkpt lat="45.30556" lon="0.4158">
        <ele>117.9</ele>
        <time>2016-10-31T09:58:33Z</time>
      </trkpt>
      <trkpt lat="45.30583" lon="0.41573">
        <ele>117.9</ele>
        <time>2016-10-31T09:58:52Z</time>
      </trkpt>
      <trkpt lat="45.30608" lon="0.41568">
        <ele>117.42</ele>
        <time>2016-10-31T09:59:09Z</time>
      </trkpt>
      <trkpt lat="45.30624" lon="0.41568">
        <ele>117.42</ele>
        <time>2016-10-31T09:59:20Z</time>
      </trkpt>
      <trkpt lat="45.30634" lon="0.41568">
        <ele>117.42</ele>
        <time>2016-10-31T09:59:27Z</time>
      </trkpt>
      <trkpt lat="45.30658" lon="0.41557">
        <ele>117.42</ele>
        <time>2016-10-31T09:59:45Z</time>
      </trkpt>
      <trkpt lat="45.30681" lon="0.41552">
        <ele>116.94</ele>
        <time>2016-10-31T10:00:02Z</time>
      </trkpt>
      <trkpt lat="45.30682" lon="0.41553">
        <ele>116.46</ele>
        <time>2016-10-31T10:00:08Z</time>
      </trkpt>
      <trkpt lat="45.30689" lon="0.41554">
        <ele>116.46</ele>
        <time>2016-10-31T10:00:23Z</time>
      </trkpt>
      <trkpt lat="45.30688" lon="0.41551">
        <ele>116.46</ele>
        <time>2016-10-31T10:00:35Z</time>
      </trkpt>
      <trkpt lat="45.30688" lon="0.41547">
        <ele>116.46</ele>
        <time>2016-10-31T10:00:46Z</time>
      </trkpt>
      <trkpt lat="45.30687" lon="0.41549">
        <ele>116.46</ele>
        <time>2016-10-31T10:00:48Z</time>
      </trkpt>
      <trkpt lat="45.30691" lon="0.41556">
        <ele>116.46</ele>
        <time>2016-10-31T10:00:53Z</time>
      </trkpt>
      <trkpt lat="45.30712" lon="0.41579">
        <ele>115.98</ele>
        <time>2016-10-31T10:01:11Z</time>
      </trkpt>
      <trkpt lat="45.30734" lon="0.416">
        <ele>115.98</ele>
        <time>2016-10-31T10:01:29Z</time>
      </trkpt>
      <trkpt lat="45.30753" lon="0.4163">
        <ele>115.98</ele>
        <time>2016-10-31T10:01:48Z</time>
      </trkpt>
      <trkpt lat="45.30767" lon="0.41663">
        <ele>117.9</ele>
        <time>2016-10-31T10:02:07Z</time>
      </trkpt>
      <trkpt lat="45.30787" lon="0.41695">
        <ele>117.9</ele>
        <time>2016-10-31T10:02:27Z</time>
      </trkpt>
      <trkpt lat="45.3081" lon="0.41722">
        <ele>118.86</ele>
        <time>2016-10-31T10:02:47Z</time>
      </trkpt>
      <trkpt lat="45.30832" lon="0.41747">
        <ele>118.86</ele>
        <time>2016-10-31T10:03:06Z</time>
      </trkpt>
      <trkpt lat="45.30844" lon="0.4176">
        <ele>119.82</ele>
        <time>2016-10-31T10:03:24Z</time>
      </trkpt>
      <trkpt lat="45.30844" lon="0.41759">
        <ele>119.82</ele>
        <time>2016-10-31T10:03:51Z</time>
      </trkpt>
      <trkpt lat="45.30845" lon="0.41761">
        <ele>119.82</ele>
        <time>2016-10-31T10:04:16Z</time>
      </trkpt>
      <trkpt lat="45.30846" lon="0.41762">
        <ele>119.82</ele>
        <time>2016-10-31T10:04:21Z</time>
      </trkpt>
      <trkpt lat="45.3086" lon="0.41778">
        <ele>119.82</ele>
        <time>2016-10-31T10:04:37Z</time>
      </trkpt>
      <trkpt lat="45.30866" lon="0.41786">
        <ele>119.82</ele>
        <time>2016-10-31T10:04:43Z</time>
      </trkpt>
      <trkpt lat="45.30874" lon="0.41796">
        <ele>119.82</ele>
        <time>2016-10-31T10:04:51Z</time>
      </trkpt>
      <trkpt lat="45.30886" lon="0.4181">
        <ele>119.82</ele>
        <time>2016-10-31T10:05:02Z</time>
      </trkpt>
      <trkpt lat="45.30893" lon="0.4182">
        <ele>120.3</ele>
        <time>2016-10-31T10:05:09Z</time>
      </trkpt>
      <trkpt lat="45.30906" lon="0.41837">
        <ele>120.3</ele>
        <time>2016-10-31T10:05:21Z</time>
      </trkpt>
      <trkpt lat="45.3093" lon="0.41858">
        <ele>120.3</ele>
        <time>2016-10-31T10:05:41Z</time>
      </trkpt>
      <trkpt lat="45.30937" lon="0.41862">
        <ele>121.74</ele>
        <time>2016-10-31T10:05:48Z</time>
      </trkpt>
      <trkpt lat="45.30938" lon="0.41862">
        <ele>121.74</ele>
        <time>2016-10-31T10:06:08Z</time>
      </trkpt>
      <trkpt lat="45.30938" lon="0.41861">
        <ele>121.74</ele>
        <time>2016-10-31T10:06:24Z</time>
      </trkpt>
      <trkpt lat="45.3094" lon="0.41861">
        <ele>121.74</ele>
        <time>2016-10-31T10:06:26Z</time>
      </trkpt>
      <trkpt lat="45.30944" lon="0.41862">
        <ele>121.74</ele>
        <time>2016-10-31T10:06:30Z</time>
      </trkpt>
      <trkpt lat="45.3097" lon="0.41867">
        <ele>121.74</ele>
        <time>2016-10-31T10:06:47Z</time>
      </trkpt>
      <trkpt lat="45.30994" lon="0.41873">
        <ele>122.22</ele>
        <time>2016-10-31T10:07:04Z</time>
      </trkpt>
      <trkpt lat="45.3102" lon="0.41882">
        <ele>122.71</ele>
        <time>2016-10-31T10:07:22Z</time>
      </trkpt>
      <trkpt lat="45.31049" lon="0.41897">
        <ele>123.67</ele>
        <time>2016-10-31T10:07:43Z</time>
      </trkpt>
      <trkpt lat="45.31074" lon="0.4192">
        <ele>124.63</ele>
        <time>2016-10-31T10:08:03Z</time>
      </trkpt>
      <trkpt lat="45.31097" lon="0.41944">
        <ele>125.59</ele>
        <time>2016-10-31T10:08:23Z</time>
      </trkpt>
      <trkpt lat="45.31119" lon="0.41976">
        <ele>125.59</ele>
        <time>2016-10-31T10:08:44Z</time>
      </trkpt>
      <trkpt lat="45.31139" lon="0.42">
        <ele>125.59</ele>
        <time>2016-10-31T10:09:02Z</time>
      </trkpt>
      <trkpt lat="45.31164" lon="0.42017">
        <ele>126.07</ele>
        <time>2016-10-31T10:09:20Z</time>
      </trkpt>
      <trkpt lat="45.31191" lon="0.42032">
        <ele>126.55</ele>
        <time>2016-10-31T10:09:39Z</time>
      </trkpt>
      <trkpt lat="45.31217" lon="0.42051">
        <ele>127.51</ele>
        <time>2016-10-31T10:09:59Z</time>
      </trkpt>
      <trkpt lat="45.31239" lon="0.42068">
        <ele>127.51</ele>
        <time>2016-10-31T10:10:16Z</time>
      </trkpt>
      <trkpt lat="45.31263" lon="0.42082">
        <ele>128.47</ele>
        <time>2016-10-31T10:10:34Z</time>
      </trkpt>
      <trkpt lat="45.31289" lon="0.42096">
        <ele>128.95</ele>
        <time>2016-10-31T10:10:52Z</time>
      </trkpt>
      <trkpt lat="45.31312" lon="0.42111">
        <ele>129.43</ele>
        <time>2016-10-31T10:11:10Z</time>
      </trkpt>
      <trkpt lat="45.31317" lon="0.42112">
        <ele>129.92</ele>
        <time>2016-10-31T10:11:22Z</time>
      </trkpt>
      <trkpt lat="45.31325" lon="0.42116">
        <ele>130.4</ele>
        <time>2016-10-31T10:11:35Z</time>
      </trkpt>
      <trkpt lat="45.31328" lon="0.42116">
        <ele>130.88</ele>
        <time>2016-10-31T10:11:50Z</time>
      </trkpt>
      <trkpt lat="45.3133" lon="0.42114">
        <ele>130.88</ele>
        <time>2016-10-31T10:12:08Z</time>
      </trkpt>
      <trkpt lat="45.3133" lon="0.42118">
        <ele>130.88</ele>
        <time>2016-10-31T10:12:28Z</time>
      </trkpt>
      <trkpt lat="45.31331" lon="0.42119">
        <ele>130.88</ele>
        <time>2016-10-31T10:12:50Z</time>
      </trkpt>
      <trkpt lat="45.31332" lon="0.42118">
        <ele>130.88</ele>
        <time>2016-10-31T10:13:14Z</time>
      </trkpt>
      <trkpt lat="45.31331" lon="0.42118">
        <ele>130.88</ele>
        <time>2016-10-31T10:13:33Z</time>
      </trkpt>
      <trkpt lat="45.31332" lon="0.42119">
        <ele>130.88</ele>
        <time>2016-10-31T10:14:04Z</time>
      </trkpt>
      <trkpt lat="45.31332" lon="0.4212">
        <ele>130.88</ele>
        <time>2016-10-31T10:14:31Z</time>
      </trkpt>
      <trkpt lat="45.31331" lon="0.4212">
        <ele>130.88</ele>
        <time>2016-10-31T10:14:50Z</time>
      </trkpt>
      <trkpt lat="45.31332" lon="0.4212">
        <ele>130.88</ele>
        <time>2016-10-31T10:15:10Z</time>
      </trkpt>
      <trkpt lat="45.31331" lon="0.42118">
        <ele>130.88</ele>
        <time>2016-10-31T10:15:28Z</time>
      </trkpt>
      <trkpt lat="45.31333" lon="0.42118">
        <ele>130.88</ele>
        <time>2016-10-31T10:15:58Z</time>
      </trkpt>
      <trkpt lat="45.31334" lon="0.42119">
        <ele>130.88</ele>
        <time>2016-10-31T10:16:21Z</time>
      </trkpt>
      <trkpt lat="45.31334" lon="0.42121">
        <ele>130.88</ele>
        <time>2016-10-31T10:16:34Z</time>
      </trkpt>
      <trkpt lat="45.31357" lon="0.42128">
        <ele>130.88</ele>
        <time>2016-10-31T10:16:51Z</time>
      </trkpt>
      <trkpt lat="45.31383" lon="0.42113">
        <ele>131.36</ele>
        <time>2016-10-31T10:17:09Z</time>
      </trkpt>
      <trkpt lat="45.31405" lon="0.42094">
        <ele>132.32</ele>
        <time>2016-10-31T10:17:26Z</time>
      </trkpt>
      <trkpt lat="45.31426" lon="0.42074">
        <ele>132.32</ele>
        <time>2016-10-31T10:17:42Z</time>
      </trkpt>
      <trkpt lat="45.3145" lon="0.42054">
        <ele>133.76</ele>
        <time>2016-10-31T10:18:01Z</time>
      </trkpt>
      <trkpt lat="45.31472" lon="0.42054">
        <ele>134.72</ele>
        <time>2016-10-31T10:18:16Z</time>
      </trkpt>
      <trkpt lat="45.31494" lon="0.42059">
        <ele>134.72</ele>
        <time>2016-10-31T10:18:32Z</time>
      </trkpt>
      <trkpt lat="45.31521" lon="0.42048">
        <ele>135.68</ele>
        <time>2016-10-31T10:18:51Z</time>
      </trkpt>
      <trkpt lat="45.31542" lon="0.42031">
        <ele>136.64</ele>
        <time>2016-10-31T10:19:08Z</time>
      </trkpt>
      <trkpt lat="45.31563" lon="0.42007">
        <ele>137.13</ele>
        <time>2016-10-31T10:19:27Z</time>
      </trkpt>
      <trkpt lat="45.31572" lon="0.41994">
        <ele>137.61</ele>
        <time>2016-10-31T10:19:37Z</time>
      </trkpt>
      <trkpt lat="45.31593" lon="0.41972">
        <ele>138.57</ele>
        <time>2016-10-31T10:19:54Z</time>
      </trkpt>
      <trkpt lat="45.31612" lon="0.41951">
        <ele>139.53</ele>
        <time>2016-10-31T10:20:11Z</time>
      </trkpt>
      <trkpt lat="45.31635" lon="0.41932">
        <ele>140.49</ele>
        <time>2016-10-31T10:20:29Z</time>
      </trkpt>
      <trkpt lat="45.31661" lon="0.41915">
        <ele>141.93</ele>
        <time>2016-10-31T10:20:49Z</time>
      </trkpt>
      <trkpt lat="45.31682" lon="0.41902">
        <ele>143.37</ele>
        <time>2016-10-31T10:21:05Z</time>
      </trkpt>
      <trkpt lat="45.317" lon="0.4189">
        <ele>144.82</ele>
        <time>2016-10-31T10:21:19Z</time>
      </trkpt>
      <trkpt lat="45.31722" lon="0.41879">
        <ele>146.74</ele>
        <time>2016-10-31T10:21:35Z</time>
      </trkpt>
      <trkpt lat="45.31745" lon="0.41869">
        <ele>149.14</ele>
        <time>2016-10-31T10:21:53Z</time>
      </trkpt>
      <trkpt lat="45.31764" lon="0.41862">
        <ele>152.03</ele>
        <time>2016-10-31T10:22:08Z</time>
      </trkpt>
      <trkpt lat="45.31766" lon="0.41861">
        <ele>152.51</ele>
        <time>2016-10-31T10:22:10Z</time>
      </trkpt>
      <trkpt lat="45.31786" lon="0.41852">
        <ele>155.39</ele>
        <time>2016-10-31T10:22:27Z</time>
      </trkpt>
      <trkpt lat="45.31797" lon="0.41847">
        <ele>156.83</ele>
        <time>2016-10-31T10:22:36Z</time>
      </trkpt>
      <trkpt lat="45.31816" lon="0.41835">
        <ele>160.2</ele>
        <time>2016-10-31T10:22:53Z</time>
      </trkpt>
      <trkpt lat="45.31819" lon="0.41833">
        <ele>161.16</ele>
        <time>2016-10-31T10:23:05Z</time>
      </trkpt>
      <trkpt lat="45.31821" lon="0.41833">
        <ele>161.16</ele>
        <time>2016-10-31T10:23:07Z</time>
      </trkpt>
      <trkpt lat="45.31832" lon="0.41823">
        <ele>162.12</ele>
        <time>2016-10-31T10:23:17Z</time>
      </trkpt>
      <trkpt lat="45.31847" lon="0.41816">
        <ele>164.04</ele>
        <time>2016-10-31T10:23:30Z</time>
      </trkpt>
      <trkpt lat="45.31857" lon="0.41811">
        <ele>165</ele>
        <time>2016-10-31T10:23:39Z</time>
      </trkpt>
      <trkpt lat="45.31862" lon="0.4181">
        <ele>165.48</ele>
        <time>2016-10-31T10:23:45Z</time>
      </trkpt>
      <trkpt lat="45.31878" lon="0.418">
        <ele>166.93</ele>
        <time>2016-10-31T10:23:57Z</time>
      </trkpt>
      <trkpt lat="45.31895" lon="0.4179">
        <ele>168.37</ele>
        <time>2016-10-31T10:24:10Z</time>
      </trkpt>
      <trkpt lat="45.31915" lon="0.41782">
        <ele>169.81</ele>
        <time>2016-10-31T10:24:25Z</time>
      </trkpt>
      <trkpt lat="45.3193" lon="0.41779">
        <ele>170.77</ele>
        <time>2016-10-31T10:24:39Z</time>
      </trkpt>
      <trkpt lat="45.31943" lon="0.41777">
        <ele>171.25</ele>
        <time>2016-10-31T10:24:53Z</time>
      </trkpt>
      <trkpt lat="45.31957" lon="0.41776">
        <ele>172.69</ele>
        <time>2016-10-31T10:25:05Z</time>
      </trkpt>
      <trkpt lat="45.31983" lon="0.41778">
        <ele>175.58</ele>
        <time>2016-10-31T10:25:23Z</time>
      </trkpt>
      <trkpt lat="45.32008" lon="0.41791">
        <ele>178.46</ele>
        <time>2016-10-31T10:25:42Z</time>
      </trkpt>
      <trkpt lat="45.32027" lon="0.41808">
        <ele>180.87</ele>
        <time>2016-10-31T10:25:59Z</time>
      </trkpt>
      <trkpt lat="45.32032" lon="0.41815">
        <ele>181.35</ele>
        <time>2016-10-31T10:26:04Z</time>
      </trkpt>
      <trkpt lat="45.32037" lon="0.41819">
        <ele>182.31</ele>
        <time>2016-10-31T10:26:08Z</time>
      </trkpt>
      <trkpt lat="45.32056" lon="0.41837">
        <ele>186.15</ele>
        <time>2016-10-31T10:26:26Z</time>
      </trkpt>
      <trkpt lat="45.32075" lon="0.41847">
        <ele>189.52</ele>
        <time>2016-10-31T10:26:41Z</time>
      </trkpt>
      <trkpt lat="45.32076" lon="0.41851">
        <ele>189.52</ele>
        <time>2016-10-31T10:26:51Z</time>
      </trkpt>
      <trkpt lat="45.3208" lon="0.4186">
        <ele>190.96</ele>
        <time>2016-10-31T10:27:04Z</time>
      </trkpt>
      <trkpt lat="45.32079" lon="0.41858">
        <ele>190.96</ele>
        <time>2016-10-31T10:27:24Z</time>
      </trkpt>
      <trkpt lat="45.3208" lon="0.41858">
        <ele>191.44</ele>
        <time>2016-10-31T10:27:46Z</time>
      </trkpt>
      <trkpt lat="45.32083" lon="0.4186">
        <ele>191.44</ele>
        <time>2016-10-31T10:27:59Z</time>
      </trkpt>
      <trkpt lat="45.32084" lon="0.41859">
        <ele>191.44</ele>
        <time>2016-10-31T10:28:30Z</time>
      </trkpt>
      <trkpt lat="45.32079" lon="0.4186">
        <ele>191.44</ele>
        <time>2016-10-31T10:28:43Z</time>
      </trkpt>
      <trkpt lat="45.32083" lon="0.41863">
        <ele>190.96</ele>
        <time>2016-10-31T10:28:53Z</time>
      </trkpt>
      <trkpt lat="45.32084" lon="0.41871">
        <ele>192.4</ele>
        <time>2016-10-31T10:28:58Z</time>
      </trkpt>
      <trkpt lat="45.32087" lon="0.41876">
        <ele>192.88</ele>
        <time>2016-10-31T10:29:01Z</time>
      </trkpt>
      <trkpt lat="45.32089" lon="0.41883">
        <ele>193.84</ele>
        <time>2016-10-31T10:29:05Z</time>
      </trkpt>
      <trkpt lat="45.32101" lon="0.41915">
        <ele>196.25</ele>
        <time>2016-10-31T10:29:22Z</time>
      </trkpt>
      <trkpt lat="45.32108" lon="0.41949">
        <ele>197.21</ele>
        <time>2016-10-31T10:29:40Z</time>
      </trkpt>
      <trkpt lat="45.32109" lon="0.41979">
        <ele>198.17</ele>
        <time>2016-10-31T10:29:55Z</time>
      </trkpt>
      <trkpt lat="45.32107" lon="0.42007">
        <ele>198.17</ele>
        <time>2016-10-31T10:30:09Z</time>
      </trkpt>
      <trkpt lat="45.32107" lon="0.42024">
        <ele>198.65</ele>
        <time>2016-10-31T10:30:17Z</time>
      </trkpt>
      <trkpt lat="45.3211" lon="0.42037">
        <ele>199.61</ele>
        <time>2016-10-31T10:30:24Z</time>
      </trkpt>
      <trkpt lat="45.32113" lon="0.42055">
        <ele>202.01</ele>
        <time>2016-10-31T10:30:37Z</time>
      </trkpt>
      <trkpt lat="45.32115" lon="0.42062">
        <ele>202.01</ele>
        <time>2016-10-31T10:30:42Z</time>
      </trkpt>
      <trkpt lat="45.32121" lon="0.42091">
        <ele>202.01</ele>
        <time>2016-10-31T10:30:57Z</time>
      </trkpt>
      <trkpt lat="45.32119" lon="0.42102">
        <ele>200.57</ele>
        <time>2016-10-31T10:31:03Z</time>
      </trkpt>
      <trkpt lat="45.32107" lon="0.42115">
        <ele>199.13</ele>
        <time>2016-10-31T10:31:15Z</time>
      </trkpt>
      <trkpt lat="45.3208" lon="0.42129">
        <ele>197.69</ele>
        <time>2016-10-31T10:31:34Z</time>
      </trkpt>
      <trkpt lat="45.3208" lon="0.4213">
        <ele>197.69</ele>
        <time>2016-10-31T10:31:43Z</time>
      </trkpt>
      <trkpt lat="45.32063" lon="0.42141">
        <ele>196.73</ele>
        <time>2016-10-31T10:31:56Z</time>
      </trkpt>
      <trkpt lat="45.3204" lon="0.42159">
        <ele>196.73</ele>
        <time>2016-10-31T10:32:14Z</time>
      </trkpt>
      <trkpt lat="45.32015" lon="0.42184">
        <ele>195.77</ele>
        <time>2016-10-31T10:32:35Z</time>
      </trkpt>
      <trkpt lat="45.32001" lon="0.42204">
        <ele>194.8</ele>
        <time>2016-10-31T10:32:49Z</time>
      </trkpt>
      <trkpt lat="45.31983" lon="0.42232">
        <ele>195.77</ele>
        <time>2016-10-31T10:33:06Z</time>
      </trkpt>
      <trkpt lat="45.31961" lon="0.42261">
        <ele>196.25</ele>
        <time>2016-10-31T10:33:27Z</time>
      </trkpt>
      <trkpt lat="45.31938" lon="0.4229">
        <ele>196.25</ele>
        <time>2016-10-31T10:33:48Z</time>
      </trkpt>
      <trkpt lat="45.31919" lon="0.42308">
        <ele>197.21</ele>
        <time>2016-10-31T10:34:03Z</time>
      </trkpt>
      <trkpt lat="45.31898" lon="0.42323">
        <ele>196.73</ele>
        <time>2016-10-31T10:34:19Z</time>
      </trkpt>
      <trkpt lat="45.31894" lon="0.42326">
        <ele>195.77</ele>
        <time>2016-10-31T10:34:22Z</time>
      </trkpt>
      <trkpt lat="45.3187" lon="0.42339">
        <ele>194.8</ele>
        <time>2016-10-31T10:34:40Z</time>
      </trkpt>
      <trkpt lat="45.31847" lon="0.42348">
        <ele>192.88</ele>
        <time>2016-10-31T10:34:57Z</time>
      </trkpt>
      <trkpt lat="45.31827" lon="0.4236">
        <ele>190.96</ele>
        <time>2016-10-31T10:35:13Z</time>
      </trkpt>
      <trkpt lat="45.31809" lon="0.42372">
        <ele>189.04</ele>
        <time>2016-10-31T10:35:26Z</time>
      </trkpt>
      <trkpt lat="45.31791" lon="0.42384">
        <ele>187.59</ele>
        <time>2016-10-31T10:35:39Z</time>
      </trkpt>
      <trkpt lat="45.31778" lon="0.42394">
        <ele>187.11</ele>
        <time>2016-10-31T10:35:51Z</time>
      </trkpt>
      <trkpt lat="45.31754" lon="0.42413">
        <ele>186.15</ele>
        <time>2016-10-31T10:36:09Z</time>
      </trkpt>
      <trkpt lat="45.31738" lon="0.42428">
        <ele>185.19</ele>
        <time>2016-10-31T10:36:22Z</time>
      </trkpt>
      <trkpt lat="45.31722" lon="0.42443">
        <ele>185.19</ele>
        <time>2016-10-31T10:36:35Z</time>
      </trkpt>
      <trkpt lat="45.31701" lon="0.4246">
        <ele>185.19</ele>
        <time>2016-10-31T10:36:51Z</time>
      </trkpt>
      <trkpt lat="45.31678" lon="0.42476">
        <ele>185.19</ele>
        <time>2016-10-31T10:37:08Z</time>
      </trkpt>
      <trkpt lat="45.31657" lon="0.42488">
        <ele>185.19</ele>
        <time>2016-10-31T10:37:23Z</time>
      </trkpt>
      <trkpt lat="45.31637" lon="0.42498">
        <ele>183.75</ele>
        <time>2016-10-31T10:37:38Z</time>
      </trkpt>
      <trkpt lat="45.31616" lon="0.42506">
        <ele>181.35</ele>
        <time>2016-10-31T10:37:53Z</time>
      </trkpt>
      <trkpt lat="45.31586" lon="0.42518">
        <ele>178.46</ele>
        <time>2016-10-31T10:38:14Z</time>
      </trkpt>
      <trkpt lat="45.31562" lon="0.42521">
        <ele>177.98</ele>
        <time>2016-10-31T10:38:30Z</time>
      </trkpt>
      <trkpt lat="45.31538" lon="0.42522">
        <ele>176.54</ele>
        <time>2016-10-31T10:38:46Z</time>
      </trkpt>
      <trkpt lat="45.31518" lon="0.42521">
        <ele>176.06</ele>
        <time>2016-10-31T10:39:00Z</time>
      </trkpt>
      <trkpt lat="45.31493" lon="0.42518">
        <ele>175.58</ele>
        <time>2016-10-31T10:39:17Z</time>
      </trkpt>
      <trkpt lat="45.31466" lon="0.42519">
        <ele>173.66</ele>
        <time>2016-10-31T10:39:35Z</time>
      </trkpt>
      <trkpt lat="45.31448" lon="0.42519">
        <ele>172.69</ele>
        <time>2016-10-31T10:39:49Z</time>
      </trkpt>
      <trkpt lat="45.31424" lon="0.42518">
        <ele>172.21</ele>
        <time>2016-10-31T10:40:04Z</time>
      </trkpt>
      <trkpt lat="45.31399" lon="0.42517">
        <ele>171.73</ele>
        <time>2016-10-31T10:40:22Z</time>
      </trkpt>
      <trkpt lat="45.31373" lon="0.42516">
        <ele>170.29</ele>
        <time>2016-10-31T10:40:40Z</time>
      </trkpt>
      <trkpt lat="45.31352" lon="0.42513">
        <ele>169.81</ele>
        <time>2016-10-31T10:40:56Z</time>
      </trkpt>
      <trkpt lat="45.3133" lon="0.42507">
        <ele>169.33</ele>
        <time>2016-10-31T10:41:10Z</time>
      </trkpt>
      <trkpt lat="45.3131" lon="0.42502">
        <ele>169.33</ele>
        <time>2016-10-31T10:41:24Z</time>
      </trkpt>
      <trkpt lat="45.31288" lon="0.42495">
        <ele>169.33</ele>
        <time>2016-10-31T10:41:38Z</time>
      </trkpt>
      <trkpt lat="45.31268" lon="0.42493">
        <ele>169.33</ele>
        <time>2016-10-31T10:41:52Z</time>
      </trkpt>
      <trkpt lat="45.31249" lon="0.42483">
        <ele>169.33</ele>
        <time>2016-10-31T10:42:06Z</time>
      </trkpt>
      <trkpt lat="45.3123" lon="0.42475">
        <ele>169.33</ele>
        <time>2016-10-31T10:42:20Z</time>
      </trkpt>
      <trkpt lat="45.31203" lon="0.42457">
        <ele>169.33</ele>
        <time>2016-10-31T10:42:39Z</time>
      </trkpt>
      <trkpt lat="45.31185" lon="0.42448">
        <ele>169.33</ele>
        <time>2016-10-31T10:42:55Z</time>
      </trkpt>
      <trkpt lat="45.31184" lon="0.42448">
        <ele>169.33</ele>
        <time>2016-10-31T10:43:00Z</time>
      </trkpt>
      <trkpt lat="45.31181" lon="0.42445">
        <ele>169.33</ele>
        <time>2016-10-31T10:43:04Z</time>
      </trkpt>
      <trkpt lat="45.31156" lon="0.42429">
        <ele>168.85</ele>
        <time>2016-10-31T10:43:23Z</time>
      </trkpt>
      <trkpt lat="45.31142" lon="0.42422">
        <ele>168.85</ele>
        <time>2016-10-31T10:43:38Z</time>
      </trkpt>
      <trkpt lat="45.31136" lon="0.4242">
        <ele>168.85</ele>
        <time>2016-10-31T10:43:42Z</time>
      </trkpt>
      <trkpt lat="45.31112" lon="0.42415">
        <ele>169.33</ele>
        <time>2016-10-31T10:43:58Z</time>
      </trkpt>
      <trkpt lat="45.3109" lon="0.42412">
        <ele>169.81</ele>
        <time>2016-10-31T10:44:15Z</time>
      </trkpt>
      <trkpt lat="45.31089" lon="0.42413">
        <ele>169.81</ele>
        <time>2016-10-31T10:44:29Z</time>
      </trkpt>
      <trkpt lat="45.31091" lon="0.42413">
        <ele>170.29</ele>
        <time>2016-10-31T10:44:50Z</time>
      </trkpt>
      <trkpt lat="45.31091" lon="0.42412">
        <ele>170.29</ele>
        <time>2016-10-31T10:45:10Z</time>
      </trkpt>
      <trkpt lat="45.31074" lon="0.42409">
        <ele>170.29</ele>
        <time>2016-10-31T10:45:23Z</time>
      </trkpt>
      <trkpt lat="45.3105" lon="0.42407">
        <ele>170.29</ele>
        <time>2016-10-31T10:45:39Z</time>
      </trkpt>
      <trkpt lat="45.31023" lon="0.42405">
        <ele>169.33</ele>
        <time>2016-10-31T10:45:57Z</time>
      </trkpt>
      <trkpt lat="45.31" lon="0.42416">
        <ele>168.37</ele>
        <time>2016-10-31T10:46:14Z</time>
      </trkpt>
      <trkpt lat="45.30982" lon="0.42437">
        <ele>166.93</ele>
        <time>2016-10-31T10:46:30Z</time>
      </trkpt>
      <trkpt lat="45.30962" lon="0.42471">
        <ele>165.48</ele>
        <time>2016-10-31T10:46:51Z</time>
      </trkpt>
      <trkpt lat="45.3095" lon="0.42502">
        <ele>163.08</ele>
        <time>2016-10-31T10:47:08Z</time>
      </trkpt>
      <trkpt lat="45.30945" lon="0.42512">
        <ele>162.6</ele>
        <time>2016-10-31T10:47:14Z</time>
      </trkpt>
      <trkpt lat="45.30928" lon="0.42538">
        <ele>159.72</ele>
        <time>2016-10-31T10:47:31Z</time>
      </trkpt>
      <trkpt lat="45.30912" lon="0.42561">
        <ele>156.83</ele>
        <time>2016-10-31T10:47:48Z</time>
      </trkpt>
      <trkpt lat="45.30896" lon="0.42581">
        <ele>153.47</ele>
        <time>2016-10-31T10:48:02Z</time>
      </trkpt>
      <trkpt lat="45.30881" lon="0.42604">
        <ele>150.58</ele>
        <time>2016-10-31T10:48:18Z</time>
      </trkpt>
      <trkpt lat="45.30867" lon="0.42626">
        <ele>147.7</ele>
        <time>2016-10-31T10:48:33Z</time>
      </trkpt>
      <trkpt lat="45.30858" lon="0.42639">
        <ele>146.26</ele>
        <time>2016-10-31T10:48:48Z</time>
      </trkpt>
      <trkpt lat="45.30848" lon="0.42656">
        <ele>142.89</ele>
        <time>2016-10-31T10:49:00Z</time>
      </trkpt>
      <trkpt lat="45.30834" lon="0.42673">
        <ele>139.53</ele>
        <time>2016-10-31T10:49:14Z</time>
      </trkpt>
      <trkpt lat="45.30825" lon="0.4269">
        <ele>136.16</ele>
        <time>2016-10-31T10:49:26Z</time>
      </trkpt>
      <trkpt lat="45.30813" lon="0.42708">
        <ele>132.8</ele>
        <time>2016-10-31T10:49:39Z</time>
      </trkpt>
      <trkpt lat="45.30804" lon="0.42727">
        <ele>129.43</ele>
        <time>2016-10-31T10:49:52Z</time>
      </trkpt>
      <trkpt lat="45.30795" lon="0.42748">
        <ele>126.55</ele>
        <time>2016-10-31T10:50:04Z</time>
      </trkpt>
      <trkpt lat="45.30793" lon="0.42751">
        <ele>126.07</ele>
        <time>2016-10-31T10:50:11Z</time>
      </trkpt>
      <trkpt lat="45.3079" lon="0.42757">
        <ele>125.59</ele>
        <time>2016-10-31T10:50:15Z</time>
      </trkpt>
      <trkpt lat="45.30785" lon="0.42781">
        <ele>122.22</ele>
        <time>2016-10-31T10:50:27Z</time>
      </trkpt>
      <trkpt lat="45.30781" lon="0.42808">
        <ele>120.3</ele>
        <time>2016-10-31T10:50:41Z</time>
      </trkpt>
      <trkpt lat="45.30764" lon="0.42833">
        <ele>117.9</ele>
        <time>2016-10-31T10:50:58Z</time>
      </trkpt>
      <trkpt lat="45.30762" lon="0.42835">
        <ele>117.9</ele>
        <time>2016-10-31T10:51:00Z</time>
      </trkpt>
      <trkpt lat="45.30757" lon="0.42841">
        <ele>116.94</ele>
        <time>2016-10-31T10:51:05Z</time>
      </trkpt>
      <trkpt lat="45.30741" lon="0.42856">
        <ele>116.46</ele>
        <time>2016-10-31T10:51:20Z</time>
      </trkpt>
      <trkpt lat="45.30726" lon="0.42874">
        <ele>115.5</ele>
        <time>2016-10-31T10:51:34Z</time>
      </trkpt>
      <trkpt lat="45.30702" lon="0.42888">
        <ele>115.01</ele>
        <time>2016-10-31T10:51:48Z</time>
      </trkpt>
      <trkpt lat="45.30695" lon="0.42901">
        <ele>115.01</ele>
        <time>2016-10-31T10:52:00Z</time>
      </trkpt>
      <trkpt lat="45.30676" lon="0.42914">
        <ele>115.98</ele>
        <time>2016-10-31T10:52:15Z</time>
      </trkpt>
      <trkpt lat="45.30674" lon="0.42914">
        <ele>115.98</ele>
        <time>2016-10-31T10:52:16Z</time>
      </trkpt>
      <trkpt lat="45.3067" lon="0.42911">
        <ele>115.98</ele>
        <time>2016-10-31T10:52:29Z</time>
      </trkpt>
      <trkpt lat="45.30658" lon="0.42908">
        <ele>115.98</ele>
        <time>2016-10-31T10:52:40Z</time>
      </trkpt>
      <trkpt lat="45.30635" lon="0.42901">
        <ele>115.98</ele>
        <time>2016-10-31T10:52:56Z</time>
      </trkpt>
      <trkpt lat="45.30617" lon="0.42897">
        <ele>116.46</ele>
        <time>2016-10-31T10:53:10Z</time>
      </trkpt>
      <trkpt lat="45.30617" lon="0.42899">
        <ele>116.46</ele>
        <time>2016-10-31T10:53:20Z</time>
      </trkpt>
      <trkpt lat="45.30599" lon="0.4289">
        <ele>115.01</ele>
        <time>2016-10-31T10:53:34Z</time>
      </trkpt>
      <trkpt lat="45.30581" lon="0.42881">
        <ele>115.01</ele>
        <time>2016-10-31T10:53:46Z</time>
      </trkpt>
      <trkpt lat="45.30559" lon="0.42875">
        <ele>116.46</ele>
        <time>2016-10-31T10:54:02Z</time>
      </trkpt>
      <trkpt lat="45.30535" lon="0.42863">
        <ele>116.94</ele>
        <time>2016-10-31T10:54:18Z</time>
      </trkpt>
      <trkpt lat="45.3051" lon="0.42845">
        <ele>118.38</ele>
        <time>2016-10-31T10:54:37Z</time>
      </trkpt>
      <trkpt lat="45.3049" lon="0.42826">
        <ele>119.82</ele>
        <time>2016-10-31T10:54:54Z</time>
      </trkpt>
      <trkpt lat="45.30481" lon="0.42811">
        <ele>120.78</ele>
        <time>2016-10-31T10:55:05Z</time>
      </trkpt>
      <trkpt lat="45.30472" lon="0.42798">
        <ele>121.26</ele>
        <time>2016-10-31T10:55:17Z</time>
      </trkpt>
      <trkpt lat="45.30469" lon="0.42791">
        <ele>122.22</ele>
        <time>2016-10-31T10:55:33Z</time>
      </trkpt>
      <trkpt lat="45.30459" lon="0.42772">
        <ele>122.71</ele>
        <time>2016-10-31T10:55:46Z</time>
      </trkpt>
      <trkpt lat="45.30444" lon="0.42751">
        <ele>122.71</ele>
        <time>2016-10-31T10:56:01Z</time>
      </trkpt>
      <trkpt lat="45.30426" lon="0.4273">
        <ele>121.26</ele>
        <time>2016-10-31T10:56:15Z</time>
      </trkpt>
      <trkpt lat="45.30403" lon="0.42707">
        <ele>120.78</ele>
        <time>2016-10-31T10:56:33Z</time>
      </trkpt>
      <trkpt lat="45.30374" lon="0.4269">
        <ele>118.86</ele>
        <time>2016-10-31T10:56:53Z</time>
      </trkpt>
      <trkpt lat="45.30349" lon="0.42667">
        <ele>117.9</ele>
        <time>2016-10-31T10:57:13Z</time>
      </trkpt>
      <trkpt lat="45.30337" lon="0.42637">
        <ele>116.94</ele>
        <time>2016-10-31T10:57:30Z</time>
      </trkpt>
      <trkpt lat="45.3033" lon="0.42609">
        <ele>115.98</ele>
        <time>2016-10-31T10:57:45Z</time>
      </trkpt>
      <trkpt lat="45.30318" lon="0.4259">
        <ele>115.01</ele>
        <time>2016-10-31T10:57:59Z</time>
      </trkpt>
      <trkpt lat="45.30301" lon="0.42574">
        <ele>114.05</ele>
        <time>2016-10-31T10:58:15Z</time>
      </trkpt>
      <trkpt lat="45.30284" lon="0.42547">
        <ele>113.57</ele>
        <time>2016-10-31T10:58:31Z</time>
      </trkpt>
      <trkpt lat="45.30275" lon="0.42525">
        <ele>113.57</ele>
        <time>2016-10-31T10:58:44Z</time>
      </trkpt>
      <trkpt lat="45.30276" lon="0.4252">
        <ele>113.09</ele>
        <time>2016-10-31T10:59:02Z</time>
      </trkpt>
      <trkpt lat="45.30274" lon="0.4252">
        <ele>113.09</ele>
        <time>2016-10-31T10:59:08Z</time>
      </trkpt>
      <trkpt lat="45.30261" lon="0.42537">
        <ele>115.01</ele>
        <time>2016-10-31T10:59:21Z</time>
      </trkpt>
      <trkpt lat="45.30246" lon="0.42557">
        <ele>115.98</ele>
        <time>2016-10-31T10:59:36Z</time>
      </trkpt>
      <trkpt lat="45.3023" lon="0.42572">
        <ele>119.34</ele>
        <time>2016-10-31T10:59:51Z</time>
      </trkpt>
      <trkpt lat="45.30215" lon="0.42589">
        <ele>121.74</ele>
        <time>2016-10-31T11:00:06Z</time>
      </trkpt>
      <trkpt lat="45.30205" lon="0.42605">
        <ele>124.15</ele>
        <time>2016-10-31T11:00:19Z</time>
      </trkpt>
      <trkpt lat="45.30194" lon="0.42621">
        <ele>126.55</ele>
        <time>2016-10-31T11:00:33Z</time>
      </trkpt>
      <trkpt lat="45.30184" lon="0.42635">
        <ele>129.43</ele>
        <time>2016-10-31T11:00:48Z</time>
      </trkpt>
      <trkpt lat="45.3017" lon="0.42654">
        <ele>131.84</ele>
        <time>2016-10-31T11:01:03Z</time>
      </trkpt>
      <trkpt lat="45.30159" lon="0.42671">
        <ele>134.24</ele>
        <time>2016-10-31T11:01:17Z</time>
      </trkpt>
      <trkpt lat="45.30154" lon="0.42679">
        <ele>136.64</ele>
        <time>2016-10-31T11:01:34Z</time>
      </trkpt>
      <trkpt lat="45.30153" lon="0.4268">
        <ele>136.64</ele>
        <time>2016-10-31T11:01:52Z</time>
      </trkpt>
      <trkpt lat="45.3015" lon="0.42682">
        <ele>136.16</ele>
        <time>2016-10-31T11:02:14Z</time>
      </trkpt>
      <trkpt lat="45.30142" lon="0.42698">
        <ele>137.61</ele>
        <time>2016-10-31T11:02:26Z</time>
      </trkpt>
      <trkpt lat="45.30139" lon="0.42702">
        <ele>138.57</ele>
        <time>2016-10-31T11:02:30Z</time>
      </trkpt>
      <trkpt lat="45.30128" lon="0.42711">
        <ele>140.01</ele>
        <time>2016-10-31T11:02:41Z</time>
      </trkpt>
      <trkpt lat="45.30117" lon="0.42724">
        <ele>142.41</ele>
        <time>2016-10-31T11:02:55Z</time>
      </trkpt>
      <trkpt lat="45.30108" lon="0.42745">
        <ele>145.3</ele>
        <time>2016-10-31T11:03:10Z</time>
      </trkpt>
      <trkpt lat="45.30102" lon="0.42762">
        <ele>147.7</ele>
        <time>2016-10-31T11:03:21Z</time>
      </trkpt>
      <trkpt lat="45.30092" lon="0.42779">
        <ele>149.14</ele>
        <time>2016-10-31T11:03:34Z</time>
      </trkpt>
      <trkpt lat="45.30089" lon="0.42781">
        <ele>150.1</ele>
        <time>2016-10-31T11:03:51Z</time>
      </trkpt>
      <trkpt lat="45.30086" lon="0.42771">
        <ele>150.1</ele>
        <time>2016-10-31T11:04:13Z</time>
      </trkpt>
      <trkpt lat="45.30089" lon="0.42781">
        <ele>150.58</ele>
        <time>2016-10-31T11:04:46Z</time>
      </trkpt>
      <trkpt lat="45.30085" lon="0.42804">
        <ele>152.99</ele>
        <time>2016-10-31T11:05:00Z</time>
      </trkpt>
      <trkpt lat="45.30078" lon="0.42812">
        <ele>154.43</ele>
        <time>2016-10-31T11:05:09Z</time>
      </trkpt>
      <trkpt lat="45.30072" lon="0.42828">
        <ele>156.83</ele>
        <time>2016-10-31T11:05:22Z</time>
      </trkpt>
      <trkpt lat="45.3007" lon="0.4284">
        <ele>157.79</ele>
        <time>2016-10-31T11:05:30Z</time>
      </trkpt>
      <trkpt lat="45.30067" lon="0.4286">
        <ele>159.72</ele>
        <time>2016-10-31T11:05:43Z</time>
      </trkpt>
      <trkpt lat="45.3006" lon="0.42882">
        <ele>161.64</ele>
        <time>2016-10-31T11:05:58Z</time>
      </trkpt>
      <trkpt lat="45.30052" lon="0.42903">
        <ele>163.08</ele>
        <time>2016-10-31T11:06:13Z</time>
      </trkpt>
      <trkpt lat="45.30045" lon="0.42927">
        <ele>163.56</ele>
        <time>2016-10-31T11:06:25Z</time>
      </trkpt>
      <trkpt lat="45.30042" lon="0.42932">
        <ele>163.56</ele>
        <time>2016-10-31T11:06:28Z</time>
      </trkpt>
      <trkpt lat="45.30041" lon="0.42936">
        <ele>164.04</ele>
        <time>2016-10-31T11:06:30Z</time>
      </trkpt>
      <trkpt lat="45.30027" lon="0.42958">
        <ele>165</ele>
        <time>2016-10-31T11:06:45Z</time>
      </trkpt>
      <trkpt lat="45.30014" lon="0.42969">
        <ele>166.45</ele>
        <time>2016-10-31T11:06:58Z</time>
      </trkpt>
      <trkpt lat="45.30013" lon="0.4297">
        <ele>166.45</ele>
        <time>2016-10-31T11:06:59Z</time>
      </trkpt>
      <trkpt lat="45.29998" lon="0.42971">
        <ele>166.93</ele>
        <time>2016-10-31T11:07:13Z</time>
      </trkpt>
      <trkpt lat="45.29995" lon="0.4297">
        <ele>166.93</ele>
        <time>2016-10-31T11:07:16Z</time>
      </trkpt>
      <trkpt lat="45.2998" lon="0.42976">
        <ele>166.93</ele>
        <time>2016-10-31T11:07:25Z</time>
      </trkpt>
      <trkpt lat="45.2997" lon="0.4298">
        <ele>167.41</ele>
        <time>2016-10-31T11:07:33Z</time>
      </trkpt>
      <trkpt lat="45.29954" lon="0.42984">
        <ele>167.41</ele>
        <time>2016-10-31T11:07:46Z</time>
      </trkpt>
      <trkpt lat="45.29952" lon="0.42984">
        <ele>167.41</ele>
        <time>2016-10-31T11:07:48Z</time>
      </trkpt>
      <trkpt lat="45.29947" lon="0.42983">
        <ele>167.41</ele>
        <time>2016-10-31T11:07:51Z</time>
      </trkpt>
      <trkpt lat="45.29941" lon="0.42984">
        <ele>167.89</ele>
        <time>2016-10-31T11:07:56Z</time>
      </trkpt>
      <trkpt lat="45.29928" lon="0.42985">
        <ele>167.89</ele>
        <time>2016-10-31T11:08:06Z</time>
      </trkpt>
      <trkpt lat="45.29921" lon="0.42987">
        <ele>167.89</ele>
        <time>2016-10-31T11:08:23Z</time>
      </trkpt>
      <trkpt lat="45.2991" lon="0.4299">
        <ele>167.89</ele>
        <time>2016-10-31T11:08:39Z</time>
      </trkpt>
      <trkpt lat="45.29897" lon="0.42991">
        <ele>168.37</ele>
        <time>2016-10-31T11:08:48Z</time>
      </trkpt>
      <trkpt lat="45.29888" lon="0.42994">
        <ele>168.37</ele>
        <time>2016-10-31T11:08:54Z</time>
      </trkpt>
      <trkpt lat="45.29882" lon="0.42997">
        <ele>168.37</ele>
        <time>2016-10-31T11:08:58Z</time>
      </trkpt>
      <trkpt lat="45.29871" lon="0.43001">
        <ele>168.37</ele>
        <time>2016-10-31T11:09:05Z</time>
      </trkpt>
      <trkpt lat="45.29857" lon="0.43004">
        <ele>168.37</ele>
        <time>2016-10-31T11:09:16Z</time>
      </trkpt>
      <trkpt lat="45.29837" lon="0.43006">
        <ele>168.37</ele>
        <time>2016-10-31T11:09:30Z</time>
      </trkpt>
      <trkpt lat="45.29822" lon="0.43009">
        <ele>166.93</ele>
        <time>2016-10-31T11:09:43Z</time>
      </trkpt>
      <trkpt lat="45.29814" lon="0.43012">
        <ele>166.93</ele>
        <time>2016-10-31T11:09:49Z</time>
      </trkpt>
      <trkpt lat="45.29792" lon="0.43009">
        <ele>166.93</ele>
        <time>2016-10-31T11:10:02Z</time>
      </trkpt>
      <trkpt lat="45.29776" lon="0.43016">
        <ele>166.45</ele>
        <time>2016-10-31T11:10:14Z</time>
      </trkpt>
      <trkpt lat="45.29762" lon="0.43028">
        <ele>166.45</ele>
        <time>2016-10-31T11:10:27Z</time>
      </trkpt>
      <trkpt lat="45.29755" lon="0.43035">
        <ele>166.45</ele>
        <time>2016-10-31T11:10:39Z</time>
      </trkpt>
      <trkpt lat="45.29751" lon="0.43035">
        <ele>166.45</ele>
        <time>2016-10-31T11:11:07Z</time>
      </trkpt>
      <trkpt lat="45.29749" lon="0.43039">
        <ele>167.41</ele>
        <time>2016-10-31T11:11:20Z</time>
      </trkpt>
      <trkpt lat="45.29744" lon="0.43049">
        <ele>168.37</ele>
        <time>2016-10-31T11:11:35Z</time>
      </trkpt>
      <trkpt lat="45.29742" lon="0.43057">
        <ele>169.81</ele>
        <time>2016-10-31T11:11:49Z</time>
      </trkpt>
      <trkpt lat="45.29736" lon="0.43061">
        <ele>169.81</ele>
        <time>2016-10-31T11:12:03Z</time>
      </trkpt>
      <trkpt lat="45.29729" lon="0.43077">
        <ele>169.81</ele>
        <time>2016-10-31T11:12:17Z</time>
      </trkpt>
      <trkpt lat="45.29724" lon="0.43087">
        <ele>169.81</ele>
        <time>2016-10-31T11:12:29Z</time>
      </trkpt>
      <trkpt lat="45.29723" lon="0.43086">
        <ele>169.81</ele>
        <time>2016-10-31T11:12:50Z</time>
      </trkpt>
      <trkpt lat="45.29722" lon="0.43089">
        <ele>169.81</ele>
        <time>2016-10-31T11:13:11Z</time>
      </trkpt>
      <trkpt lat="45.29716" lon="0.43078">
        <ele>169.81</ele>
        <time>2016-10-31T11:13:40Z</time>
      </trkpt>
      <trkpt lat="45.29709" lon="0.43087">
        <ele>169.81</ele>
        <time>2016-10-31T11:13:53Z</time>
      </trkpt>
      <trkpt lat="45.29714" lon="0.43082">
        <ele>169.81</ele>
        <time>2016-10-31T11:14:12Z</time>
      </trkpt>
      <trkpt lat="45.29714" lon="0.43083">
        <ele>169.81</ele>
        <time>2016-10-31T11:14:30Z</time>
      </trkpt>
      <trkpt lat="45.29713" lon="0.43082">
        <ele>169.81</ele>
        <time>2016-10-31T11:14:44Z</time>
      </trkpt>
      <trkpt lat="45.29707" lon="0.43081">
        <ele>170.29</ele>
        <time>2016-10-31T11:14:56Z</time>
      </trkpt>
      <trkpt lat="45.29689" lon="0.43073">
        <ele>168.37</ele>
        <time>2016-10-31T11:15:10Z</time>
      </trkpt>
      <trkpt lat="45.29686" lon="0.43072">
        <ele>168.37</ele>
        <time>2016-10-31T11:15:12Z</time>
      </trkpt>
      <trkpt lat="45.29669" lon="0.43055">
        <ele>167.41</ele>
        <time>2016-10-31T11:15:25Z</time>
      </trkpt>
      <trkpt lat="45.29654" lon="0.4304">
        <ele>166.93</ele>
        <time>2016-10-31T11:15:38Z</time>
      </trkpt>
      <trkpt lat="45.2965" lon="0.43036">
        <ele>166.45</ele>
        <time>2016-10-31T11:15:43Z</time>
      </trkpt>
      <trkpt lat="45.29643" lon="0.43031">
        <ele>165.96</ele>
        <time>2016-10-31T11:15:48Z</time>
      </trkpt>
      <trkpt lat="45.29631" lon="0.43021">
        <ele>165.96</ele>
        <time>2016-10-31T11:15:57Z</time>
      </trkpt>
      <trkpt lat="45.29616" lon="0.43006">
        <ele>165.96</ele>
        <time>2016-10-31T11:16:11Z</time>
      </trkpt>
      <trkpt lat="45.29599" lon="0.42993">
        <ele>165.96</ele>
        <time>2016-10-31T11:16:25Z</time>
      </trkpt>
      <trkpt lat="45.29586" lon="0.42979">
        <ele>165</ele>
        <time>2016-10-31T11:16:37Z</time>
      </trkpt>
      <trkpt lat="45.29571" lon="0.4297">
        <ele>165</ele>
        <time>2016-10-31T11:16:50Z</time>
      </trkpt>
      <trkpt lat="45.29557" lon="0.42963">
        <ele>165</ele>
        <time>2016-10-31T11:17:02Z</time>
      </trkpt>
      <trkpt lat="45.29555" lon="0.42962">
        <ele>165</ele>
        <time>2016-10-31T11:17:03Z</time>
      </trkpt>
      <trkpt lat="45.29543" lon="0.42957">
        <ele>166.45</ele>
        <time>2016-10-31T11:17:13Z</time>
      </trkpt>
      <trkpt lat="45.2953" lon="0.42957">
        <ele>166.93</ele>
        <time>2016-10-31T11:17:28Z</time>
      </trkpt>
      <trkpt lat="45.29519" lon="0.42953">
        <ele>166.93</ele>
        <time>2016-10-31T11:17:43Z</time>
      </trkpt>
      <trkpt lat="45.29513" lon="0.42948">
        <ele>166.93</ele>
        <time>2016-10-31T11:17:49Z</time>
      </trkpt>
      <trkpt lat="45.29498" lon="0.42922">
        <ele>165.96</ele>
        <time>2016-10-31T11:18:05Z</time>
      </trkpt>
      <trkpt lat="45.29485" lon="0.42897">
        <ele>165</ele>
        <time>2016-10-31T11:18:20Z</time>
      </trkpt>
      <trkpt lat="45.29469" lon="0.4288">
        <ele>165</ele>
        <time>2016-10-31T11:18:32Z</time>
      </trkpt>
      <trkpt lat="45.29452" lon="0.42861">
        <ele>166.45</ele>
        <time>2016-10-31T11:18:46Z</time>
      </trkpt>
      <trkpt lat="45.29441" lon="0.42848">
        <ele>166.45</ele>
        <time>2016-10-31T11:18:59Z</time>
      </trkpt>
      <trkpt lat="45.29435" lon="0.42841">
        <ele>166.93</ele>
        <time>2016-10-31T11:19:04Z</time>
      </trkpt>
      <trkpt lat="45.2942" lon="0.42812">
        <ele>167.41</ele>
        <time>2016-10-31T11:19:19Z</time>
      </trkpt>
      <trkpt lat="45.29408" lon="0.42791">
        <ele>168.37</ele>
        <time>2016-10-31T11:19:33Z</time>
      </trkpt>
      <trkpt lat="45.29398" lon="0.42773">
        <ele>168.85</ele>
        <time>2016-10-31T11:19:46Z</time>
      </trkpt>
      <trkpt lat="45.29385" lon="0.42749">
        <ele>169.81</ele>
        <time>2016-10-31T11:19:59Z</time>
      </trkpt>
      <trkpt lat="45.2937" lon="0.42727">
        <ele>170.77</ele>
        <time>2016-10-31T11:20:12Z</time>
      </trkpt>
      <trkpt lat="45.29362" lon="0.42714">
        <ele>170.77</ele>
        <time>2016-10-31T11:20:20Z</time>
      </trkpt>
      <trkpt lat="45.29349" lon="0.42694">
        <ele>171.25</ele>
        <time>2016-10-31T11:20:34Z</time>
      </trkpt>
      <trkpt lat="45.29334" lon="0.42674">
        <ele>171.25</ele>
        <time>2016-10-31T11:20:48Z</time>
      </trkpt>
      <trkpt lat="45.29327" lon="0.42667">
        <ele>171.25</ele>
        <time>2016-10-31T11:20:54Z</time>
      </trkpt>
      <trkpt lat="45.29305" lon="0.42642">
        <ele>171.25</ele>
        <time>2016-10-31T11:21:13Z</time>
      </trkpt>
      <trkpt lat="45.29285" lon="0.42626">
        <ele>171.25</ele>
        <time>2016-10-31T11:21:28Z</time>
      </trkpt>
      <trkpt lat="45.29268" lon="0.42614">
        <ele>169.81</ele>
        <time>2016-10-31T11:21:41Z</time>
      </trkpt>
      <trkpt lat="45.29253" lon="0.42604">
        <ele>169.81</ele>
        <time>2016-10-31T11:21:52Z</time>
      </trkpt>
      <trkpt lat="45.29233" lon="0.42596">
        <ele>169.81</ele>
        <time>2016-10-31T11:22:07Z</time>
      </trkpt>
      <trkpt lat="45.29213" lon="0.4259">
        <ele>169.81</ele>
        <time>2016-10-31T11:22:21Z</time>
      </trkpt>
      <trkpt lat="45.29185" lon="0.42582">
        <ele>169.81</ele>
        <time>2016-10-31T11:22:40Z</time>
      </trkpt>
      <trkpt lat="45.29165" lon="0.4258">
        <ele>169.81</ele>
        <time>2016-10-31T11:22:54Z</time>
      </trkpt>
      <trkpt lat="45.29139" lon="0.42578">
        <ele>169.33</ele>
        <time>2016-10-31T11:23:13Z</time>
      </trkpt>
      <trkpt lat="45.29116" lon="0.42577">
        <ele>168.85</ele>
        <time>2016-10-31T11:23:29Z</time>
      </trkpt>
      <trkpt lat="45.29092" lon="0.42575">
        <ele>168.85</ele>
        <time>2016-10-31T11:23:45Z</time>
      </trkpt>
      <trkpt lat="45.29071" lon="0.42573">
        <ele>168.37</ele>
        <time>2016-10-31T11:24:00Z</time>
      </trkpt>
      <trkpt lat="45.29048" lon="0.42571">
        <ele>168.37</ele>
        <time>2016-10-31T11:24:16Z</time>
      </trkpt>
      <trkpt lat="45.29024" lon="0.4257">
        <ele>167.89</ele>
        <time>2016-10-31T11:24:34Z</time>
      </trkpt>
      <trkpt lat="45.29003" lon="0.42569">
        <ele>167.89</ele>
        <time>2016-10-31T11:24:48Z</time>
      </trkpt>
      <trkpt lat="45.28979" lon="0.42565">
        <ele>167.89</ele>
        <time>2016-10-31T11:25:03Z</time>
      </trkpt>
      <trkpt lat="45.28957" lon="0.42559">
        <ele>167.89</ele>
        <time>2016-10-31T11:25:18Z</time>
      </trkpt>
      <trkpt lat="45.28935" lon="0.42553">
        <ele>167.41</ele>
        <time>2016-10-31T11:25:33Z</time>
      </trkpt>
      <trkpt lat="45.28915" lon="0.42548">
        <ele>167.41</ele>
        <time>2016-10-31T11:25:48Z</time>
      </trkpt>
      <trkpt lat="45.28891" lon="0.4254">
        <ele>167.41</ele>
        <time>2016-10-31T11:26:04Z</time>
      </trkpt>
      <trkpt lat="45.28868" lon="0.42535">
        <ele>167.41</ele>
        <time>2016-10-31T11:26:20Z</time>
      </trkpt>
      <trkpt lat="45.28848" lon="0.4253">
        <ele>167.41</ele>
        <time>2016-10-31T11:26:35Z</time>
      </trkpt>
      <trkpt lat="45.28841" lon="0.42522">
        <ele>166.45</ele>
        <time>2016-10-31T11:26:49Z</time>
      </trkpt>
      <trkpt lat="45.28842" lon="0.42519">
        <ele>167.41</ele>
        <time>2016-10-31T11:27:04Z</time>
      </trkpt>
      <trkpt lat="45.28841" lon="0.42518">
        <ele>165.96</ele>
        <time>2016-10-31T11:27:15Z</time>
      </trkpt>
      <trkpt lat="45.28856" lon="0.42483">
        <ele>165</ele>
        <time>2016-10-31T11:27:35Z</time>
      </trkpt>
      <trkpt lat="45.28867" lon="0.42461">
        <ele>163.56</ele>
        <time>2016-10-31T11:27:48Z</time>
      </trkpt>
      <trkpt lat="45.28878" lon="0.42432">
        <ele>161.16</ele>
        <time>2016-10-31T11:28:05Z</time>
      </trkpt>
      <trkpt lat="45.28878" lon="0.42428">
        <ele>161.16</ele>
        <time>2016-10-31T11:28:19Z</time>
      </trkpt>
      <trkpt lat="45.28879" lon="0.42429">
        <ele>161.16</ele>
        <time>2016-10-31T11:28:41Z</time>
      </trkpt>
      <trkpt lat="45.28881" lon="0.42422">
        <ele>160.68</ele>
        <time>2016-10-31T11:28:46Z</time>
      </trkpt>
      <trkpt lat="45.28892" lon="0.42394">
        <ele>157.31</ele>
        <time>2016-10-31T11:29:02Z</time>
      </trkpt>
      <trkpt lat="45.28902" lon="0.42363">
        <ele>154.91</ele>
        <time>2016-10-31T11:29:19Z</time>
      </trkpt>
      <trkpt lat="45.28909" lon="0.4233">
        <ele>152.03</ele>
        <time>2016-10-31T11:29:37Z</time>
      </trkpt>
      <trkpt lat="45.28912" lon="0.42302">
        <ele>149.62</ele>
        <time>2016-10-31T11:29:51Z</time>
      </trkpt>
      <trkpt lat="45.28915" lon="0.42284">
        <ele>147.7</ele>
        <time>2016-10-31T11:30:03Z</time>
      </trkpt>
      <trkpt lat="45.28918" lon="0.42259">
        <ele>146.26</ele>
        <time>2016-10-31T11:30:13Z</time>
      </trkpt>
      <trkpt lat="45.2892" lon="0.42234">
        <ele>144.34</ele>
        <time>2016-10-31T11:30:26Z</time>
      </trkpt>
      <trkpt lat="45.28925" lon="0.42216">
        <ele>141.93</ele>
        <time>2016-10-31T11:30:38Z</time>
      </trkpt>
      <trkpt lat="45.28931" lon="0.42197">
        <ele>139.05</ele>
        <time>2016-10-31T11:30:49Z</time>
      </trkpt>
      <trkpt lat="45.28938" lon="0.42171">
        <ele>135.68</ele>
        <time>2016-10-31T11:31:04Z</time>
      </trkpt>
      <trkpt lat="45.28947" lon="0.42154">
        <ele>132.8</ele>
        <time>2016-10-31T11:31:16Z</time>
      </trkpt>
      <trkpt lat="45.28953" lon="0.42138">
        <ele>130.4</ele>
        <time>2016-10-31T11:31:30Z</time>
      </trkpt>
      <trkpt lat="45.2896" lon="0.42115">
        <ele>127.03</ele>
        <time>2016-10-31T11:31:43Z</time>
      </trkpt>
      <trkpt lat="45.28963" lon="0.42092">
        <ele>124.63</ele>
        <time>2016-10-31T11:31:55Z</time>
      </trkpt>
      <trkpt lat="45.28966" lon="0.4206">
        <ele>122.22</ele>
        <time>2016-10-31T11:32:11Z</time>
      </trkpt>
      <trkpt lat="45.2897" lon="0.4202">
        <ele>120.78</ele>
        <time>2016-10-31T11:32:30Z</time>
      </trkpt>
      <trkpt lat="45.28976" lon="0.41992">
        <ele>119.82</ele>
        <time>2016-10-31T11:32:44Z</time>
      </trkpt>
      <trkpt lat="45.28979" lon="0.4198">
        <ele>119.34</ele>
        <time>2016-10-31T11:32:56Z</time>
      </trkpt>
      <trkpt lat="45.28979" lon="0.4198">
        <ele>119.34</ele>
        <time>2016-10-31T11:32:58Z</time>
      </trkpt>
      <trkpt lat="45.28981" lon="0.41973">
        <ele>119.34</ele>
        <time>2016-10-31T11:33:02Z</time>
      </trkpt>
      <trkpt lat="45.28997" lon="0.41937">
        <ele>117.9</ele>
        <time>2016-10-31T11:33:23Z</time>
      </trkpt>
      <trkpt lat="45.29013" lon="0.41907">
        <ele>116.46</ele>
        <time>2016-10-31T11:33:41Z</time>
      </trkpt>
      <trkpt lat="45.29029" lon="0.41877">
        <ele>115.98</ele>
        <time>2016-10-31T11:33:59Z</time>
      </trkpt>
      <trkpt lat="45.29047" lon="0.41848">
        <ele>114.53</ele>
        <time>2016-10-31T11:34:18Z</time>
      </trkpt>
      <trkpt lat="45.29065" lon="0.41824">
        <ele>114.05</ele>
        <time>2016-10-31T11:34:36Z</time>
      </trkpt>
      <trkpt lat="45.29071" lon="0.41818">
        <ele>113.57</ele>
        <time>2016-10-31T11:34:49Z</time>
      </trkpt>
      <trkpt lat="45.29078" lon="0.41808">
        <ele>113.57</ele>
        <time>2016-10-31T11:34:56Z</time>
      </trkpt>
      <trkpt lat="45.2909" lon="0.41791">
        <ele>113.09</ele>
        <time>2016-10-31T11:35:09Z</time>
      </trkpt>
      <trkpt lat="45.29101" lon="0.41774">
        <ele>112.61</ele>
        <time>2016-10-31T11:35:24Z</time>
      </trkpt>
      <trkpt lat="45.29118" lon="0.4175">
        <ele>112.61</ele>
        <time>2016-10-31T11:35:42Z</time>
      </trkpt>
      <trkpt lat="45.29134" lon="0.41726">
        <ele>112.13</ele>
        <time>2016-10-31T11:35:59Z</time>
      </trkpt>
      <trkpt lat="45.29149" lon="0.41706">
        <ele>112.13</ele>
        <time>2016-10-31T11:36:15Z</time>
      </trkpt>
      <trkpt lat="45.29157" lon="0.41683">
        <ele>112.13</ele>
        <time>2016-10-31T11:36:29Z</time>
      </trkpt>
      <trkpt lat="45.2916" lon="0.41672">
        <ele>112.13</ele>
        <time>2016-10-31T11:36:35Z</time>
      </trkpt>
      <trkpt lat="45.29171" lon="0.41638">
        <ele>112.13</ele>
        <time>2016-10-31T11:36:52Z</time>
      </trkpt>
      <trkpt lat="45.29172" lon="0.41633">
        <ele>112.13</ele>
        <time>2016-10-31T11:36:55Z</time>
      </trkpt>
      <trkpt lat="45.29175" lon="0.41617">
        <ele>111.65</ele>
        <time>2016-10-31T11:37:06Z</time>
      </trkpt>
      <trkpt lat="45.29177" lon="0.41611">
        <ele>111.65</ele>
        <time>2016-10-31T11:37:10Z</time>
      </trkpt>
      <trkpt lat="45.29178" lon="0.41603">
        <ele>111.17</ele>
        <time>2016-10-31T11:37:15Z</time>
      </trkpt>
      <trkpt lat="45.29182" lon="0.41588">
        <ele>110.69</ele>
        <time>2016-10-31T11:37:24Z</time>
      </trkpt>
      <trkpt lat="45.29188" lon="0.4156">
        <ele>110.21</ele>
        <time>2016-10-31T11:37:39Z</time>
      </trkpt>
      <trkpt lat="45.29189" lon="0.41555">
        <ele>110.21</ele>
        <time>2016-10-31T11:37:42Z</time>
      </trkpt>
      <trkpt lat="45.29191" lon="0.41548">
        <ele>110.21</ele>
        <time>2016-10-31T11:37:46Z</time>
      </trkpt>
      <trkpt lat="45.29196" lon="0.41537">
        <ele>110.21</ele>
        <time>2016-10-31T11:37:52Z</time>
      </trkpt>
      <trkpt lat="45.29203" lon="0.41514">
        <ele>110.21</ele>
        <time>2016-10-31T11:38:06Z</time>
      </trkpt>
      <trkpt lat="45.29206" lon="0.41507">
        <ele>111.17</ele>
        <time>2016-10-31T11:38:11Z</time>
      </trkpt>
      <trkpt lat="45.29208" lon="0.41503">
        <ele>111.17</ele>
        <time>2016-10-31T11:38:14Z</time>
      </trkpt>
      <trkpt lat="45.2921" lon="0.41498">
        <ele>111.17</ele>
        <time>2016-10-31T11:38:17Z</time>
      </trkpt>
      <trkpt lat="45.29211" lon="0.41494">
        <ele>111.17</ele>
        <time>2016-10-31T11:38:20Z</time>
      </trkpt>
      <trkpt lat="45.29214" lon="0.41488">
        <ele>111.17</ele>
        <time>2016-10-31T11:38:24Z</time>
      </trkpt>
      <trkpt lat="45.29233" lon="0.41457">
        <ele>111.65</ele>
        <time>2016-10-31T11:38:38Z</time>
      </trkpt>
      <trkpt lat="45.29255" lon="0.41411">
        <ele>112.61</ele>
        <time>2016-10-31T11:38:58Z</time>
      </trkpt>
      <trkpt lat="45.29263" lon="0.41397">
        <ele>112.61</ele>
        <time>2016-10-31T11:39:07Z</time>
      </trkpt>
      <trkpt lat="45.29267" lon="0.41386">
        <ele>112.61</ele>
        <time>2016-10-31T11:39:12Z</time>
      </trkpt>
      <trkpt lat="45.2927" lon="0.41379">
        <ele>112.61</ele>
        <time>2016-10-31T11:39:16Z</time>
      </trkpt>
      <trkpt lat="45.29281" lon="0.41354">
        <ele>112.61</ele>
        <time>2016-10-31T11:39:32Z</time>
      </trkpt>
      <trkpt lat="45.29284" lon="0.4135">
        <ele>112.61</ele>
        <time>2016-10-31T11:39:35Z</time>
      </trkpt>
      <trkpt lat="45.29297" lon="0.41335">
        <ele>112.61</ele>
        <time>2016-10-31T11:39:51Z</time>
      </trkpt>
      <trkpt lat="45.29302" lon="0.4133">
        <ele>111.17</ele>
        <time>2016-10-31T11:39:56Z</time>
      </trkpt>
      <trkpt lat="45.29309" lon="0.41322">
        <ele>110.21</ele>
        <time>2016-10-31T11:40:03Z</time>
      </trkpt>
      <trkpt lat="45.29322" lon="0.41306">
        <ele>108.77</ele>
        <time>2016-10-31T11:40:16Z</time>
      </trkpt>
      <trkpt lat="45.29334" lon="0.41285">
        <ele>106.36</ele>
        <time>2016-10-31T11:40:30Z</time>
      </trkpt>
      <trkpt lat="45.29351" lon="0.41275">
        <ele>103</ele>
        <time>2016-10-31T11:40:43Z</time>
      </trkpt>
      <trkpt lat="45.29363" lon="0.41277">
        <ele>101.56</ele>
        <time>2016-10-31T11:40:57Z</time>
      </trkpt>
      <trkpt lat="45.29363" lon="0.41279">
        <ele>101.56</ele>
        <time>2016-10-31T11:41:10Z</time>
      </trkpt>
      <trkpt lat="45.29359" lon="0.41268">
        <ele>102.04</ele>
        <time>2016-10-31T11:41:25Z</time>
      </trkpt>
      <trkpt lat="45.29349" lon="0.41246">
        <ele>101.08</ele>
        <time>2016-10-31T11:41:38Z</time>
      </trkpt>
      <trkpt lat="45.29332" lon="0.41223">
        <ele>100.11</ele>
        <time>2016-10-31T11:41:54Z</time>
      </trkpt>
      <trkpt lat="45.29312" lon="0.4121">
        <ele>96.75</ele>
        <time>2016-10-31T11:42:10Z</time>
      </trkpt>
      <trkpt lat="45.29299" lon="0.41203">
        <ele>95.79</ele>
        <time>2016-10-31T11:42:22Z</time>
      </trkpt>
      <trkpt lat="45.29296" lon="0.41203">
        <ele>95.79</ele>
        <time>2016-10-31T11:42:25Z</time>
      </trkpt>
      <trkpt lat="45.29282" lon="0.41201">
        <ele>95.31</ele>
        <time>2016-10-31T11:42:35Z</time>
      </trkpt>
      <trkpt lat="45.2928" lon="0.41186">
        <ele>94.83</ele>
        <time>2016-10-31T11:42:43Z</time>
      </trkpt>
      <trkpt lat="45.29295" lon="0.41157">
        <ele>94.35</ele>
        <time>2016-10-31T11:43:01Z</time>
      </trkpt>
      <trkpt lat="45.29298" lon="0.41153">
        <ele>94.35</ele>
        <time>2016-10-31T11:43:04Z</time>
      </trkpt>
      <trkpt lat="45.29302" lon="0.41148">
        <ele>94.35</ele>
        <time>2016-10-31T11:43:08Z</time>
      </trkpt>
      <trkpt lat="45.2932" lon="0.41121">
        <ele>92.9</ele>
        <time>2016-10-31T11:43:26Z</time>
      </trkpt>
      <trkpt lat="45.29341" lon="0.41094">
        <ele>91.46</ele>
        <time>2016-10-31T11:43:45Z</time>
      </trkpt>
      <trkpt lat="45.29352" lon="0.41072">
        <ele>90.02</ele>
        <time>2016-10-31T11:44:01Z</time>
      </trkpt>
      <trkpt lat="45.29357" lon="0.4107">
        <ele>90.02</ele>
        <time>2016-10-31T11:44:16Z</time>
      </trkpt>
      <trkpt lat="45.29382" lon="0.41044">
        <ele>90.02</ele>
        <time>2016-10-31T11:44:37Z</time>
      </trkpt>
      <trkpt lat="45.29406" lon="0.41048">
        <ele>90.02</ele>
        <time>2016-10-31T11:44:55Z</time>
      </trkpt>
      <trkpt lat="45.29427" lon="0.41064">
        <ele>90.02</ele>
        <time>2016-10-31T11:45:12Z</time>
      </trkpt>
      <trkpt lat="45.29447" lon="0.41078">
        <ele>90.02</ele>
        <time>2016-10-31T11:45:27Z</time>
      </trkpt>
      <trkpt lat="45.2947" lon="0.41093">
        <ele>90.02</ele>
        <time>2016-10-31T11:45:41Z</time>
      </trkpt>
      <trkpt lat="45.29489" lon="0.41101">
        <ele>90.98</ele>
        <time>2016-10-31T11:45:54Z</time>
      </trkpt>
      <trkpt lat="45.29494" lon="0.41098">
        <ele>91.94</ele>
        <time>2016-10-31T11:46:00Z</time>
      </trkpt>
      <trkpt lat="45.295" lon="0.41077">
        <ele>94.35</ele>
        <time>2016-10-31T11:46:15Z</time>
      </trkpt>
      <trkpt lat="45.29499" lon="0.41076">
        <ele>94.35</ele>
        <time>2016-10-31T11:46:25Z</time>
      </trkpt>
    </trkseg>
  </trk>
</gpx>